createdAt,value
2022-08-20T00:02:09.974Z,20.20
2022-08-20T00:04:36.827Z,22.00
2022-08-20T00:07:06.851Z,20.50
2022-08-20T00:09:36.474Z,21.53
2022-08-20T00:12:04.559Z,20.03
2022-08-20T00:14:31.343Z,21.47
2022-08-20T00:17:01.505Z,21.80
2022-08-20T00:19:28.455Z,20.73
2022-08-20T00:21:58.143Z,22.23
2022-08-20T00:24:25.510Z,22.27
2022-08-20T00:26:53.611Z,22.03
2022-08-20T00:29:20.731Z,23.00
2022-08-20T00:31:49.617Z,21.53
2022-08-20T00:34:16.447Z,22.90
2022-08-20T00:36:43.213Z,21.80
2022-08-20T00:39:09.941Z,24.03
2022-08-20T00:41:36.686Z,21.30
2022-08-20T00:44:11.052Z,19.73
2022-08-20T00:46:38.207Z,23.80
2022-08-20T00:49:06.695Z,23.13
2022-08-20T00:51:38.454Z,23.30
2022-08-20T00:54:09.711Z,21.70
2022-08-20T00:56:37.918Z,22.70
2022-08-20T00:59:07.875Z,22.87
2022-08-20T01:01:41.955Z,23.20
2022-08-20T01:04:23.415Z,23.50
2022-08-20T01:06:50.230Z,21.97
2022-08-20T01:09:16.931Z,21.47
2022-08-20T01:11:44.127Z,22.20
2022-08-20T01:14:13.216Z,22.07
2022-08-20T01:16:43.174Z,21.00
2022-08-20T01:19:29.231Z,22.73
2022-08-20T01:21:58.223Z,16.70
2022-08-20T01:24:31.828Z,17.90
2022-08-20T01:27:04.893Z,19.40
2022-08-20T01:29:36.921Z,22.10
2022-08-20T01:32:04.243Z,22.70
2022-08-20T01:34:31.274Z,22.30
2022-08-20T01:36:58.484Z,21.90
2022-08-20T01:39:27.550Z,23.73
2022-08-20T01:42:08.504Z,24.20
2022-08-20T01:44:36.880Z,23.23
2022-08-20T01:47:15.219Z,23.53
2022-08-20T01:49:46.931Z,22.50
2022-08-20T01:52:19.871Z,23.23
2022-08-20T01:54:46.719Z,23.13
2022-08-20T01:57:18.536Z,22.10
2022-08-20T01:59:45.818Z,22.60
2022-08-20T02:02:12.697Z,20.53
2022-08-20T02:04:40.251Z,22.87
2022-08-20T02:07:13.953Z,22.60
2022-08-20T02:09:41.509Z,21.50
2022-08-20T02:12:09.841Z,17.40
2022-08-20T02:14:40.362Z,17.90
2022-08-20T02:17:07.063Z,20.83
2022-08-20T02:19:37.513Z,19.27
2022-08-20T02:22:13.758Z,22.10
2022-08-20T02:24:40.413Z,23.13
2022-08-20T02:27:07.301Z,22.30
2022-08-20T02:29:34.004Z,22.63
2022-08-20T02:32:24.406Z,21.33
2022-08-20T02:34:48.895Z,21.07
2022-08-20T02:37:15.751Z,22.77
2022-08-20T02:39:42.637Z,23.23
2022-08-20T02:42:09.411Z,21.10
2022-08-20T02:44:36.094Z,22.73
2022-08-20T02:47:04.705Z,21.17
2022-08-20T02:49:31.415Z,20.97
2022-08-20T02:51:58.243Z,22.10
2022-08-20T02:54:24.985Z,22.27
2022-08-20T02:56:51.689Z,22.77
2022-08-20T02:59:19.988Z,22.50
2022-08-20T03:01:47.032Z,21.90
2022-08-20T03:04:27.708Z,23.07
2022-08-20T03:06:54.480Z,22.40
2022-08-20T03:09:21.220Z,22.97
2022-08-20T03:11:47.947Z,23.53
2022-08-20T03:14:14.739Z,23.00
2022-08-20T03:16:41.392Z,20.00
2022-08-20T03:19:08.096Z,20.13
2022-08-20T03:21:36.154Z,20.63
2022-08-20T03:24:03.247Z,24.00
2022-08-20T03:26:30.010Z,20.67
2022-08-20T03:28:56.716Z,21.67
2022-08-20T03:31:23.701Z,24.53
2022-08-20T03:33:53.295Z,23.93
2022-08-20T03:36:28.070Z,23.83
2022-08-20T03:38:58.318Z,25.20
2022-08-20T03:41:25.303Z,24.73
2022-08-20T03:43:53.413Z,25.50
2022-08-20T03:46:23.662Z,24.50
2022-08-20T03:48:50.798Z,20.40
2022-08-20T03:51:27.192Z,18.43
2022-08-20T03:53:53.910Z,20.27
2022-08-20T03:56:21.935Z,24.67
2022-08-20T03:58:48.758Z,24.23
2022-08-20T04:01:44.355Z,21.87
2022-08-20T04:04:02.254Z,24.07
2022-08-20T04:06:29.556Z,22.10
2022-08-20T04:08:56.566Z,24.87
2022-08-20T04:11:24.791Z,27.50
2022-08-20T04:13:51.727Z,26.17
2022-08-20T04:16:19.406Z,27.50
2022-08-20T04:19:01.844Z,27.23
2022-08-20T04:21:29.629Z,25.73
2022-08-20T04:24:00.285Z,25.73
2022-08-20T04:26:28.395Z,19.60
2022-08-20T04:28:55.203Z,23.40
2022-08-20T04:31:25.061Z,26.57
2022-08-20T04:33:52.299Z,28.60
2022-08-20T04:36:19.344Z,26.67
2022-08-20T04:38:48.490Z,27.23
2022-08-20T04:41:22.893Z,25.77
2022-08-20T04:43:52.661Z,30.80
2022-08-20T04:46:19.817Z,27.77
2022-08-20T04:48:49.163Z,26.50
2022-08-20T04:51:18.286Z,29.10
2022-08-20T04:53:52.091Z,28.77
2022-08-20T04:56:21.069Z,26.70
2022-08-20T04:58:47.795Z,23.20
2022-08-20T05:01:15.851Z,21.20
2022-08-20T05:03:43.672Z,21.17
2022-08-20T05:06:11.920Z,21.83
2022-08-20T05:08:39.622Z,25.63
2022-08-20T05:11:32.781Z,26.77
2022-08-20T05:13:54.357Z,27.70
2022-08-20T05:16:22.356Z,25.77
2022-08-20T05:18:52.749Z,26.37
2022-08-20T05:21:20.760Z,27.30
2022-08-20T05:23:47.995Z,24.57
2022-08-20T05:26:14.886Z,24.77
2022-08-20T05:28:48.891Z,24.20
2022-08-20T05:31:30.903Z,18.10
2022-08-20T05:34:00.473Z,18.77
2022-08-20T05:36:27.242Z,17.47
2022-08-20T05:38:53.978Z,24.20
2022-08-20T05:41:27.639Z,24.03
2022-08-20T05:43:56.744Z,25.17
2022-08-20T05:46:23.446Z,25.60
2022-08-20T05:48:51.496Z,22.77
2022-08-20T05:51:18.255Z,22.17
2022-08-20T05:53:45.054Z,26.00
2022-08-20T05:56:11.768Z,23.50
2022-08-20T05:58:38.556Z,25.30
2022-08-20T06:01:05.615Z,26.27
2022-08-20T06:03:32.379Z,24.20
2022-08-20T06:06:02.364Z,25.13
2022-08-20T06:08:29.137Z,25.57
2022-08-20T06:10:55.918Z,23.07
2022-08-20T06:13:22.789Z,25.60
2022-08-20T06:15:49.906Z,24.53
2022-08-20T06:18:28.636Z,26.80
2022-08-20T06:20:55.835Z,26.60
2022-08-20T06:23:24.397Z,26.47
2022-08-20T06:25:51.253Z,26.30
2022-08-20T06:28:18.425Z,27.17
2022-08-20T06:30:45.250Z,27.87
2022-08-20T06:33:11.993Z,26.77
2022-08-20T06:35:38.819Z,28.43
2022-08-20T06:38:05.627Z,27.00
2022-08-20T06:40:33.739Z,27.77
2022-08-20T06:43:00.925Z,30.03
2022-08-20T06:45:29.965Z,27.00
2022-08-20T06:47:59.486Z,27.17
2022-08-20T06:50:29.937Z,27.80
2022-08-20T06:52:56.959Z,27.23
2022-08-20T06:55:23.765Z,28.87
2022-08-20T06:57:58.088Z,27.93
2022-08-20T07:00:25.334Z,25.30
2022-08-20T07:02:52.163Z,23.47
2022-08-20T07:05:19.105Z,24.77
2022-08-20T07:07:47.091Z,21.90
2022-08-20T07:10:14.826Z,22.97
2022-08-20T07:12:41.517Z,22.23
2022-08-20T07:15:11.847Z,21.90
2022-08-20T07:17:39.046Z,22.50
2022-08-20T07:20:06.986Z,20.83
2022-08-20T07:22:33.653Z,21.30
2022-08-20T07:25:00.323Z,21.80
2022-08-20T07:27:27.046Z,23.33
2022-08-20T07:29:53.734Z,22.57
2022-08-20T07:32:21.826Z,21.70
2022-08-20T07:34:49.151Z,23.90
2022-08-20T07:37:15.851Z,21.67
2022-08-20T07:39:42.612Z,23.57
2022-08-20T07:42:09.352Z,21.47
2022-08-20T07:44:36.072Z,20.77
2022-08-20T07:47:02.984Z,20.60
2022-08-20T07:49:31.154Z,20.80
2022-08-20T07:51:57.904Z,21.00
2022-08-20T07:54:24.581Z,21.93
2022-08-20T07:56:51.229Z,21.30
2022-08-20T07:59:17.912Z,22.80
2022-08-20T08:01:44.615Z,21.07
2022-08-20T08:04:11.331Z,21.90
2022-08-20T08:06:39.373Z,22.27
2022-08-20T08:09:09.549Z,20.87
2022-08-20T08:11:39.615Z,20.23
2022-08-20T08:14:07.829Z,20.10
2022-08-20T08:16:35.426Z,20.87
2022-08-20T08:19:06.142Z,23.17
2022-08-20T08:21:32.995Z,22.10
2022-08-20T08:24:01.010Z,23.00
2022-08-20T08:26:27.897Z,23.27
2022-08-20T08:28:54.563Z,21.80
2022-08-20T08:31:21.286Z,23.47
2022-08-20T08:33:48.030Z,20.80
2022-08-20T08:36:15.850Z,21.43
2022-08-20T08:38:44.797Z,21.73
2022-08-20T08:41:18.157Z,21.50
2022-08-20T08:43:46.544Z,20.50
2022-08-20T08:46:16.491Z,21.17
2022-08-20T08:48:46.030Z,21.30
2022-08-20T08:51:16.488Z,21.40
2022-08-20T08:53:48.746Z,21.03
2022-08-20T08:56:17.446Z,19.80
2022-08-20T08:58:44.170Z,16.97
2022-08-20T09:01:54.818Z,16.27
2022-08-20T09:04:03.493Z,14.73
2022-08-20T09:06:31.639Z,13.47
2022-08-20T09:09:02.302Z,14.90
2022-08-20T09:11:31.033Z,13.67
2022-08-20T09:13:58.131Z,15.63
2022-08-20T09:16:25.946Z,14.07
2022-08-20T09:18:54.727Z,14.47
2022-08-20T09:21:21.405Z,13.20
2022-08-20T09:23:48.111Z,12.90
2022-08-20T09:26:14.866Z,10.73
2022-08-20T09:28:42.976Z,10.90
2022-08-20T09:31:09.703Z,11.60
2022-08-20T09:33:36.689Z,9.00
2022-08-20T09:36:04.050Z,10.13
2022-08-20T09:38:50.803Z,8.40
2022-08-20T09:41:17.508Z,8.53
2022-08-20T09:43:48.493Z,9.80
2022-08-20T09:46:15.243Z,9.73
2022-08-20T09:48:41.906Z,9.77
2022-08-20T09:51:08.919Z,9.40
2022-08-20T09:53:35.755Z,11.20
2022-08-20T09:56:03.277Z,9.97
2022-08-20T09:58:36.236Z,12.83
2022-08-20T10:01:11.163Z,14.00
2022-08-20T10:03:41.876Z,13.20
2022-08-20T10:06:09.108Z,11.80
2022-08-20T10:08:35.782Z,10.73
2022-08-20T10:11:02.498Z,12.57
2022-08-20T10:13:29.222Z,12.43
2022-08-20T10:15:56.572Z,12.27
2022-08-20T10:18:24.902Z,13.83
2022-08-20T10:20:51.622Z,12.70
2022-08-20T10:23:18.399Z,13.10
2022-08-20T10:25:45.087Z,12.63
2022-08-20T10:28:11.812Z,11.60
2022-08-20T10:30:38.691Z,14.00
2022-08-20T10:33:05.413Z,12.60
2022-08-20T10:35:33.516Z,12.07
2022-08-20T10:38:00.237Z,12.80
2022-08-20T10:40:27.081Z,12.20
2022-08-20T10:42:53.847Z,12.73
2022-08-20T10:45:20.546Z,9.77
2022-08-20T10:47:47.239Z,12.03
2022-08-20T10:50:15.884Z,11.30
2022-08-20T10:52:43.944Z,11.50
2022-08-20T10:55:10.792Z,10.40
2022-08-20T10:57:40.044Z,12.07
2022-08-20T11:00:08.987Z,10.63
2022-08-20T11:02:35.965Z,9.67
2022-08-20T11:05:02.771Z,10.30
2022-08-20T11:07:50.710Z,9.53
2022-08-20T11:10:20.027Z,10.10
2022-08-20T11:12:46.770Z,9.13
2022-08-20T11:15:13.975Z,8.97
2022-08-20T11:17:43.145Z,8.27
2022-08-20T11:20:11.310Z,7.90
2022-08-20T11:22:38.208Z,8.40
2022-08-20T11:25:06.099Z,10.27
2022-08-20T11:27:38.598Z,10.57
2022-08-20T11:30:07.718Z,10.63
2022-08-20T11:32:34.402Z,10.73
2022-08-20T11:35:06.662Z,11.50
2022-08-20T11:37:45.734Z,9.47
2022-08-20T11:40:12.877Z,9.47
2022-08-20T11:42:53.393Z,7.50
2022-08-20T11:45:27.635Z,7.13
2022-08-20T11:47:54.339Z,7.23
2022-08-20T11:50:22.213Z,7.17
2022-08-20T11:52:48.968Z,8.30
2022-08-20T11:55:17.431Z,8.70
2022-08-20T11:57:47.218Z,7.40
2022-08-20T12:00:17.175Z,7.97
2022-08-20T12:02:44.163Z,7.63
2022-08-20T12:05:14.238Z,8.57
2022-08-20T12:07:41.355Z,9.10
2022-08-20T12:10:09.538Z,9.20
2022-08-20T12:12:37.069Z,9.33
2022-08-20T12:15:07.839Z,8.13
2022-08-20T12:17:34.941Z,8.70
2022-08-20T12:20:05.070Z,8.70
2022-08-20T12:22:31.781Z,8.77
2022-08-20T12:24:58.522Z,8.97
2022-08-20T12:27:27.354Z,9.00
2022-08-20T12:29:56.327Z,8.90
2022-08-20T12:32:26.561Z,8.80
2022-08-20T12:34:54.188Z,10.20
2022-08-20T12:37:23.080Z,9.00
2022-08-20T12:39:52.149Z,9.23
2022-08-20T12:42:19.647Z,8.90
2022-08-20T12:44:46.501Z,9.40
2022-08-20T12:47:16.090Z,10.03
2022-08-20T12:49:46.186Z,8.17
2022-08-20T12:52:14.100Z,8.00
2022-08-20T12:54:41.078Z,8.17
2022-08-20T12:57:13.008Z,8.10
2022-08-20T12:59:39.698Z,7.67
2022-08-20T13:02:14.192Z,7.90
2022-08-20T13:04:47.008Z,7.50
2022-08-20T13:07:14.399Z,6.60
2022-08-20T13:09:42.979Z,7.37
2022-08-20T13:12:10.758Z,7.70
2022-08-20T13:14:38.123Z,7.60
2022-08-20T13:17:05.359Z,7.50
2022-08-20T13:19:35.056Z,6.90
2022-08-20T13:22:03.999Z,6.80
2022-08-20T13:24:30.939Z,7.50
2022-08-20T13:27:05.106Z,6.60
2022-08-20T13:29:31.857Z,7.17
2022-08-20T13:31:58.660Z,7.90
2022-08-20T13:34:25.352Z,7.30
2022-08-20T13:36:52.122Z,8.63
2022-08-20T13:39:20.144Z,8.73
2022-08-20T13:41:46.834Z,9.90
2022-08-20T13:44:13.722Z,10.10
2022-08-20T13:46:41.730Z,8.57
2022-08-20T13:49:08.436Z,9.63
2022-08-20T13:51:35.143Z,7.77
2022-08-20T13:54:01.833Z,9.03
2022-08-20T13:56:29.861Z,9.63
2022-08-20T13:58:56.561Z,10.47
2022-08-20T14:01:23.313Z,10.30
2022-08-20T14:03:50.176Z,9.20
2022-08-20T14:06:17.228Z,9.90
2022-08-20T14:08:43.929Z,9.80
2022-08-20T14:11:13.895Z,10.10
2022-08-20T14:13:45.837Z,9.97
2022-08-20T14:16:25.397Z,9.57
2022-08-20T14:18:54.497Z,9.83
2022-08-20T14:21:21.171Z,9.57
2022-08-20T14:23:47.846Z,9.00
2022-08-20T14:26:14.529Z,8.37
2022-08-20T14:28:41.270Z,8.87
2022-08-20T14:31:09.255Z,8.30
2022-08-20T14:33:36.265Z,8.70
2022-08-20T14:36:04.526Z,9.47
2022-08-20T14:38:31.316Z,8.63
2022-08-20T14:40:58.078Z,8.40
2022-08-20T14:43:24.831Z,9.63
2022-08-20T14:45:52.396Z,9.63
2022-08-20T14:48:20.420Z,8.60
2022-08-20T14:50:47.197Z,8.30
2022-08-20T14:53:13.985Z,8.10
2022-08-20T14:55:40.727Z,8.50
2022-08-20T14:58:09.099Z,8.30
2022-08-20T15:00:35.834Z,7.93
2022-08-20T15:03:02.651Z,8.10
2022-08-20T15:05:31.021Z,8.30
2022-08-20T15:07:57.998Z,7.97
2022-08-20T15:10:29.608Z,6.27
2022-08-20T15:12:56.801Z,6.37
2022-08-20T15:15:24.577Z,6.73
2022-08-20T15:17:55.425Z,6.73
2022-08-20T15:20:25.067Z,5.47
2022-08-20T15:22:53.416Z,4.50
2022-08-20T15:25:22.821Z,5.10
2022-08-20T15:27:49.710Z,4.87
2022-08-20T15:30:18.763Z,5.20
2022-08-20T15:32:45.582Z,4.50
2022-08-20T15:35:12.278Z,4.90
2022-08-20T15:37:40.421Z,4.80
2022-08-20T15:40:11.107Z,3.40
2022-08-20T15:42:38.309Z,3.10
2022-08-20T15:45:07.632Z,3.50
2022-08-20T15:47:37.762Z,2.83
2022-08-20T15:50:13.854Z,2.97
2022-08-20T15:52:43.727Z,2.60
2022-08-20T15:55:14.674Z,3.20
2022-08-20T15:57:53.080Z,3.10
2022-08-20T16:00:22.363Z,3.53
2022-08-20T16:03:17.547Z,3.83
2022-08-20T16:05:50.540Z,2.83
2022-08-20T16:08:31.278Z,3.60
2022-08-20T16:11:07.369Z,3.27
2022-08-20T16:13:38.760Z,2.67
2022-08-20T16:16:09.588Z,2.47
2022-08-20T16:18:38.413Z,2.33
2022-08-20T16:21:11.716Z,2.03
2022-08-20T16:23:40.567Z,2.00
2022-08-20T16:26:25.187Z,1.90
2022-08-20T16:28:59.580Z,2.33
2022-08-20T16:31:40.929Z,2.77
2022-08-20T16:34:32.306Z,2.00
2022-08-20T16:37:11.942Z,1.60
2022-08-20T16:39:45.196Z,2.00
2022-08-20T16:42:23.146Z,1.40
2022-08-20T16:44:52.432Z,1.50
2022-08-20T16:47:21.566Z,1.63
2022-08-20T16:49:54.614Z,1.80
2022-08-20T16:52:21.372Z,1.60
2022-08-20T16:54:48.150Z,1.30
2022-08-20T16:57:17.526Z,1.50
2022-08-20T16:59:56.502Z,1.40
2022-08-20T17:02:23.925Z,1.23
2022-08-20T17:04:59.366Z,1.40
2022-08-20T17:07:47.543Z,1.63
2022-08-20T17:10:22.491Z,1.40
2022-08-20T17:12:56.817Z,1.10
2022-08-20T17:15:26.741Z,1.13
2022-08-20T17:17:53.511Z,1.23
2022-08-20T17:20:20.800Z,1.37
2022-08-20T17:22:51.807Z,1.57
2022-08-20T17:25:21.142Z,1.20
2022-08-20T17:27:48.450Z,1.40
2022-08-20T17:30:25.004Z,1.33
2022-08-20T17:32:57.510Z,1.50
2022-08-20T17:35:30.734Z,1.40
2022-08-20T17:37:59.416Z,1.50
2022-08-20T17:40:29.827Z,1.50
2022-08-20T17:42:59.383Z,1.57
2022-08-20T17:45:34.031Z,1.40
2022-08-20T17:48:01.096Z,1.30
2022-08-20T17:50:32.319Z,1.50
2022-08-20T17:53:08.942Z,1.80
2022-08-20T17:55:36.660Z,1.23
2022-08-20T17:58:10.926Z,1.10
2022-08-20T18:00:39.771Z,1.40
2022-08-20T18:03:16.939Z,1.40
2022-08-20T18:05:44.922Z,1.87
2022-08-20T18:08:20.662Z,1.47
2022-08-20T18:10:56.053Z,2.20
2022-08-20T18:13:37.953Z,2.60
2022-08-20T18:16:19.562Z,2.90
2022-08-20T18:18:57.130Z,1.87
2022-08-20T18:21:56.770Z,1.70
2022-08-20T18:24:29.472Z,1.50
2022-08-20T18:27:01.280Z,1.73
2022-08-20T18:29:33.874Z,1.23
2022-08-20T18:32:05.601Z,1.30
2022-08-20T18:34:38.138Z,1.20
2022-08-20T18:37:08.794Z,1.13
2022-08-20T18:39:38.276Z,2.10
2022-08-20T18:42:07.497Z,3.00
2022-08-20T18:44:40.177Z,2.10
2022-08-20T18:47:20.991Z,2.00
2022-08-20T18:50:00.136Z,1.50
2022-08-20T18:52:29.162Z,1.63
2022-08-20T18:54:58.912Z,1.27
2022-08-20T18:57:28.589Z,2.30
2022-08-20T19:00:12.745Z,1.40
2022-08-20T19:02:55.570Z,1.93
2022-08-20T19:05:28.726Z,1.30
2022-08-20T19:07:57.584Z,1.80
2022-08-20T19:10:46.635Z,1.80
2022-08-20T19:13:27.534Z,3.00
2022-08-20T19:16:00.931Z,3.87
2022-08-20T19:18:34.254Z,2.60
2022-08-20T19:21:03.035Z,2.63
2022-08-20T19:23:35.371Z,3.50
2022-08-20T19:26:13.185Z,2.07
2022-08-20T19:28:55.070Z,2.60
2022-08-20T19:31:28.403Z,3.23
2022-08-20T19:34:20.315Z,2.83
2022-08-20T19:36:54.536Z,3.10
2022-08-20T19:39:23.893Z,3.30
2022-08-20T19:41:57.457Z,3.60
2022-08-20T19:44:29.135Z,3.90
2022-08-20T19:46:56.981Z,4.20
2022-08-20T19:49:37.396Z,3.60
2022-08-20T19:52:20.925Z,5.60
2022-08-20T19:54:49.744Z,4.23
2022-08-20T19:57:18.237Z,4.43
2022-08-20T19:59:54.382Z,3.97
2022-08-20T20:02:23.234Z,4.73
2022-08-20T20:04:55.546Z,6.10
2022-08-20T20:07:28.741Z,4.57
2022-08-20T20:09:57.693Z,5.80
2022-08-20T20:12:24.673Z,6.77
2022-08-20T20:14:53.179Z,8.80
2022-08-20T20:17:23.282Z,7.90
2022-08-20T20:19:55.168Z,8.43
2022-08-20T20:22:25.486Z,8.33
2022-08-20T20:25:01.009Z,8.17
2022-08-20T20:27:28.596Z,7.70
2022-08-20T20:29:59.326Z,7.20
2022-08-20T20:32:26.561Z,10.30
2022-08-20T20:34:58.141Z,9.70
2022-08-20T20:37:48.757Z,10.03
2022-08-20T20:40:23.504Z,11.07
2022-08-20T20:43:00.216Z,9.77
2022-08-20T20:45:39.322Z,8.87
2022-08-20T20:48:16.879Z,7.27
2022-08-20T20:50:46.189Z,6.70
2022-08-20T20:53:14.290Z,8.40
2022-08-20T20:55:41.655Z,7.60
2022-08-20T20:58:08.420Z,6.90
2022-08-20T21:00:35.184Z,5.47
2022-08-20T21:03:03.999Z,4.57
2022-08-20T21:05:32.815Z,4.90
2022-08-20T21:08:03.928Z,5.00
2022-08-20T21:10:32.865Z,3.90
2022-08-20T21:13:00.024Z,3.67
2022-08-20T21:15:27.712Z,4.33
2022-08-20T21:17:57.691Z,3.90
2022-08-20T21:20:25.157Z,3.43
2022-08-20T21:22:52.062Z,3.63
2022-08-20T21:25:20.301Z,3.90
2022-08-20T21:27:49.120Z,3.70
2022-08-20T21:30:16.823Z,3.93
2022-08-20T21:32:43.534Z,4.17
2022-08-20T21:35:11.355Z,5.03
2022-08-20T21:37:38.642Z,3.83
2022-08-20T21:40:07.136Z,3.83
2022-08-20T21:42:37.113Z,5.47
2022-08-20T21:45:06.158Z,4.60
2022-08-20T21:47:33.094Z,4.27
2022-08-20T21:50:00.103Z,4.50
2022-08-20T21:52:26.823Z,4.00
2022-08-20T21:54:53.786Z,3.80
2022-08-20T21:57:24.524Z,4.30
2022-08-20T21:59:53.205Z,4.50
2022-08-20T22:02:20.271Z,4.73
2022-08-20T22:04:47.111Z,4.13
2022-08-20T22:07:14.731Z,3.67
2022-08-20T22:09:41.403Z,4.07
2022-08-20T22:12:17.124Z,4.63
2022-08-20T22:14:43.973Z,5.20
2022-08-20T22:17:12.931Z,5.90
2022-08-20T22:19:39.686Z,6.27
2022-08-20T22:22:07.347Z,6.10
2022-08-20T22:24:34.120Z,4.80
2022-08-20T22:27:00.807Z,4.97
2022-08-20T22:29:27.549Z,4.57
2022-08-20T22:31:54.405Z,4.40
2022-08-20T22:34:22.542Z,4.20
2022-08-20T22:36:52.827Z,3.93
2022-08-20T22:39:19.538Z,4.30
2022-08-20T22:41:46.259Z,4.43
2022-08-20T22:44:12.972Z,4.87
2022-08-20T22:46:46.426Z,5.00
2022-08-20T22:49:17.925Z,5.13
2022-08-20T22:51:45.950Z,6.03
2022-08-20T22:54:18.908Z,4.50
2022-08-20T22:56:45.638Z,5.13
2022-08-20T22:59:12.710Z,4.53
2022-08-20T23:01:40.168Z,3.53
2022-08-20T23:04:12.937Z,4.00
2022-08-20T23:06:39.977Z,5.20
2022-08-20T23:09:08.061Z,4.10
2022-08-20T23:11:39.793Z,5.07
2022-08-20T23:14:06.556Z,4.30
2022-08-20T23:16:33.508Z,4.57
2022-08-20T23:19:00.298Z,5.20
2022-08-20T23:21:27.089Z,5.37
2022-08-20T23:23:53.830Z,4.47
2022-08-20T23:26:22.773Z,3.90
2022-08-20T23:28:49.475Z,4.20
2022-08-20T23:31:16.273Z,3.40
2022-08-20T23:33:44.966Z,3.40
2022-08-20T23:36:14.642Z,2.43
2022-08-20T23:38:42.815Z,2.80
2022-08-20T23:41:09.505Z,2.93
2022-08-20T23:43:38.449Z,3.20
2022-08-20T23:46:06.668Z,3.20
2022-08-20T23:48:33.473Z,3.40
2022-08-20T23:51:00.238Z,2.93
2022-08-20T23:53:26.966Z,3.80
2022-08-20T23:55:53.639Z,3.70
2022-08-20T23:58:20.383Z,4.90
